Here is the Quick Look data you requested

The Data originates at the National Weather Service, and is made available here by the UAlbany Department of Atmospheric and Environmental Sciences

Surface Observations

KACK 150653Z AUTO 23004KT 2 1/2SM BR BKN002 OVC075 07/07 A3024 RMK AO2 SLP239
 T00720072=
KAQW 150652Z AUTO 30005KT 10SM BKN035 OVC050 08/04 A3017 RMK AO2 SLP220
 T00780044=
KBAF 150653Z AUTO 21004KT 10SM SCT049 BKN060 BKN110 06/04 A3019 RMK AO2 SLP227
 T00610039=
KBED 150656Z AUTO 24005KT 10SM BR BKN013 BKN050 BKN080 09/06 A3017 RMK AO2
 SLP230 T00890061=
KBOS 150654Z 22013KT 10SM SCT010 OVC065 09/07 A3018 RMK AO2 SLP220 T00890067=
KBVY 150653Z AUTO 23007KT 10SM OVC010 08/06 A3017 RMK AO2 SLP214 T00830056=
KCEF 150656Z AUTO 20006KT 10SM OVC047 07/05 A3018 RMK AO2 SLP228 T00650051=
KCQX 150652Z AUTO 23005KT 1 3/4SM BR BKN002 BKN027 OVC060 06/06 A3024 RMK AO2
 RAB0553E38 SLP240 P0000 T00610056=
KEWB 150653Z AUTO 22006KT 10SM -RA BKN006 OVC080 09/09 A3022 RMK AO2 RAB0554
 SLP232 P0000 T00890089=
KFIT 150652Z AUTO 23010G20KT 10SM FEW018 OVC042 08/04 A3017 RMK AO2 SLP220
 T00830044=
KHYA 150656Z AUTO 21007KT 8SM FEW075 OVC095 08/07 A3021 RMK AO2 RAE46 SLP229
 P0000 T00780067=
KLWM 150654Z AUTO 20007KT 10SM OVC050 09/06 A3018 RMK AO2 SLP221 T00890056=
KMQE 150656Z AUTO 21015KT 07/07 A3016 RMK AO1 SLP228 T00670067=
KMVY 150653Z AUTO 21009KT 1/2SM R24/2000V2400FT FG VV002 08/08 A3023 RMK AO2
 RAE53 SLP235 P0000 T00830083=
KORE 150652Z AUTO 00000KT 6SM BR OVC011 04/03 A3018 RMK AO2 SLP225 T00440028=
KORH 150654Z AUTO 23017G25KT 10SM BKN039 BKN046 07/05 A3015 RMK AO2 PK WND
 24026/0641 SLP217 T00670050=
KOWD 150653Z AUTO 19006KT 10SM SCT007 BKN011 OVC060 09/08 A3019 RMK AO2 SLP222
 T00890078=
KPSF 150654Z AUTO 24006KT 10SM OVC040 07/04 A3015 RMK AO2 SLP210 T00670039=
KPVC 150656Z AUTO 20007KT 6SM -RA BR OVC002 07/07 A3021 RMK AO2 RAB31 SLP230
 P0000 T00720067=
KPYM 150652Z AUTO 22007KT 10SM -RA SCT004 BKN075 OVC100 08/07 A3021 RMK AO2
 RAB29 SLP230 P0000 T00780067=
KTAN 150652Z AUTO 22005KT 10SM OVC006 09/08 A3021 RMK AO2 SLP230 T00940078=